createdAt,value
2024-02-15T00:01:03.029Z,11.68
2024-02-15T00:02:06.429Z,11.82
2024-02-15T00:03:09.688Z,11.95
2024-02-15T00:04:13.315Z,13.43
2024-02-15T00:05:17.429Z,12.45
2024-02-15T00:06:21.726Z,12.68
2024-02-15T00:07:25.149Z,12.85
2024-02-15T00:08:30.576Z,13.65
2024-02-15T00:09:34.006Z,13.52
2024-02-15T00:10:37.399Z,11.27
2024-02-15T00:11:40.836Z,12.57
2024-02-15T00:12:44.242Z,12.00
2024-02-15T00:13:47.583Z,13.05
2024-02-15T00:14:51.148Z,11.40
2024-02-15T00:15:54.486Z,12.35
2024-02-15T00:16:58.016Z,13.27
2024-02-15T00:18:01.622Z,11.52
2024-02-15T00:19:05.323Z,11.95
2024-02-15T00:20:11.006Z,13.88
2024-02-15T00:21:15.076Z,12.43
2024-02-15T00:22:18.638Z,13.55
2024-02-15T00:23:22.554Z,11.88
2024-02-15T00:24:25.894Z,13.55
2024-02-15T00:25:29.345Z,12.40
2024-02-15T00:26:33.636Z,11.85
2024-02-15T00:27:37.549Z,10.55
2024-02-15T00:28:43.259Z,11.40
2024-02-15T00:29:47.270Z,12.32
2024-02-15T00:30:50.542Z,11.48
2024-02-15T00:31:53.988Z,12.15
2024-02-15T00:32:57.711Z,11.82
2024-02-15T00:34:01.629Z,11.85
2024-02-15T00:35:11.393Z,11.57
2024-02-15T00:36:16.717Z,12.13
2024-02-15T00:37:20.266Z,13.10
2024-02-15T00:38:23.609Z,10.70
2024-02-15T00:39:27.005Z,12.07
2024-02-15T00:40:30.407Z,12.27
2024-02-15T00:41:35.132Z,12.35
2024-02-15T00:42:39.181Z,13.05
2024-02-15T00:43:42.542Z,14.18
2024-02-15T00:44:46.134Z,11.25
2024-02-15T00:45:49.392Z,11.82
2024-02-15T00:46:52.782Z,12.30
2024-02-15T00:47:58.010Z,11.13
2024-02-15T00:49:01.600Z,13.20
2024-02-15T00:50:05.598Z,12.85
2024-02-15T00:51:10.348Z,12.75
2024-02-15T00:52:13.718Z,12.15
2024-02-15T00:53:18.350Z,12.80
2024-02-15T00:54:21.760Z,13.52
2024-02-15T00:55:25.106Z,13.18
2024-02-15T00:56:29.493Z,13.98
2024-02-15T00:57:33.070Z,12.32
2024-02-15T00:58:36.513Z,15.40
2024-02-15T00:59:39.875Z,13.48
2024-02-15T01:00:43.224Z,12.77
2024-02-15T01:01:47.977Z,11.98
2024-02-15T01:02:51.245Z,12.65
2024-02-15T01:03:54.936Z,12.20
2024-02-15T01:04:59.599Z,12.13
2024-02-15T01:06:04.039Z,13.60
2024-02-15T01:07:07.568Z,13.75
2024-02-15T01:08:10.992Z,12.43
2024-02-15T01:09:14.760Z,13.75
2024-02-15T01:10:18.752Z,13.10
2024-02-15T01:11:22.415Z,12.43
2024-02-15T01:12:25.856Z,15.68
2024-02-15T01:13:29.153Z,13.73
2024-02-15T01:14:33.580Z,13.45
2024-02-15T01:15:38.786Z,15.85
2024-02-15T01:16:42.573Z,13.68
2024-02-15T01:17:46.480Z,13.93
2024-02-15T01:18:51.342Z,13.13
2024-02-15T01:19:54.948Z,15.18
2024-02-15T01:20:59.425Z,13.82
2024-02-15T01:22:04.401Z,13.35
2024-02-15T01:23:09.464Z,14.07
2024-02-15T01:24:12.927Z,13.27
2024-02-15T01:25:17.090Z,13.43
2024-02-15T01:26:20.447Z,14.63
2024-02-15T01:27:23.962Z,13.50
2024-02-15T01:28:27.292Z,12.52
2024-02-15T01:29:32.151Z,13.02
2024-02-15T01:30:35.512Z,13.77
2024-02-15T01:31:40.880Z,13.25
2024-02-15T01:32:44.408Z,14.10
2024-02-15T01:33:49.694Z,14.30
2024-02-15T01:34:55.910Z,13.85
2024-02-15T01:35:59.777Z,13.82
2024-02-15T01:37:03.194Z,14.32
2024-02-15T01:38:09.729Z,13.32
2024-02-15T01:39:13.020Z,13.35
2024-02-15T01:40:18.423Z,12.85
2024-02-15T01:41:21.875Z,13.32
2024-02-15T01:42:25.851Z,13.85
2024-02-15T01:43:29.375Z,13.82
2024-02-15T01:44:33.445Z,12.73
2024-02-15T01:45:36.973Z,14.43
2024-02-15T01:46:40.413Z,15.43
2024-02-15T01:47:45.575Z,14.05
2024-02-15T01:48:50.239Z,14.60
2024-02-15T01:49:54.617Z,13.93
2024-02-15T01:50:59.986Z,12.98
2024-02-15T01:52:10.752Z,12.63
2024-02-15T01:53:14.415Z,14.02
2024-02-15T01:54:19.029Z,14.55
2024-02-15T01:55:23.276Z,15.50
2024-02-15T01:56:26.832Z,13.98
2024-02-15T01:57:31.646Z,14.38
2024-02-15T01:58:36.250Z,14.38
2024-02-15T01:59:40.264Z,14.52
2024-02-15T02:00:44.016Z,15.35
2024-02-15T02:01:47.814Z,15.20
2024-02-15T02:02:51.558Z,14.85
2024-02-15T02:03:55.043Z,14.00
2024-02-15T02:04:58.545Z,14.15
2024-02-15T02:06:02.576Z,13.30
2024-02-15T02:07:06.169Z,15.90
2024-02-15T02:08:11.019Z,13.32
2024-02-15T02:09:16.065Z,13.02
2024-02-15T02:10:20.004Z,14.63
2024-02-15T02:11:25.272Z,14.57
2024-02-15T02:12:29.076Z,12.02
2024-02-15T02:13:32.585Z,14.65
2024-02-15T02:14:36.324Z,13.77
2024-02-15T02:15:39.657Z,13.80
2024-02-15T02:16:43.299Z,15.05
2024-02-15T02:17:53.223Z,14.63
2024-02-15T02:19:00.690Z,14.75
2024-02-15T02:20:10.158Z,14.63
2024-02-15T02:21:14.638Z,13.63
2024-02-15T02:22:21.545Z,14.85
2024-02-15T02:23:28.178Z,13.35
2024-02-15T02:24:33.454Z,15.13
2024-02-15T02:25:36.890Z,15.27
2024-02-15T02:26:41.734Z,15.75
2024-02-15T02:27:46.197Z,12.95
2024-02-15T02:28:50.237Z,14.02
2024-02-15T02:29:54.224Z,13.55
2024-02-15T02:30:57.993Z,13.98
2024-02-15T02:32:01.455Z,14.98
2024-02-15T02:33:08.850Z,12.88
2024-02-15T02:34:12.518Z,13.45
2024-02-15T02:35:17.501Z,13.27
2024-02-15T02:36:21.397Z,15.63
2024-02-15T02:37:28.109Z,14.15
2024-02-15T02:38:31.750Z,15.35
2024-02-15T02:39:36.486Z,14.35
2024-02-15T02:40:39.933Z,13.98
2024-02-15T02:41:44.085Z,13.68
2024-02-15T02:42:50.435Z,15.02
2024-02-15T02:43:53.931Z,14.40
2024-02-15T02:44:57.948Z,15.52
2024-02-15T02:46:01.346Z,15.77
2024-02-15T02:47:05.150Z,14.80
2024-02-15T02:48:08.819Z,14.32
2024-02-15T02:49:13.520Z,14.95
2024-02-15T02:50:17.327Z,13.82
2024-02-15T02:51:21.788Z,15.90
2024-02-15T02:52:25.225Z,14.18
2024-02-15T02:53:28.672Z,14.50
2024-02-15T02:54:32.312Z,14.63
2024-02-15T02:55:35.703Z,15.43
2024-02-15T02:56:39.389Z,14.50
2024-02-15T02:57:43.826Z,15.05
2024-02-15T02:58:47.195Z,14.52
2024-02-15T02:59:51.186Z,16.38
2024-02-15T03:00:54.875Z,15.13
2024-02-15T03:01:58.994Z,14.95
2024-02-15T03:03:02.553Z,15.73
2024-02-15T03:04:06.083Z,15.23
2024-02-15T03:05:10.241Z,14.88
2024-02-15T03:06:21.884Z,13.75
2024-02-15T03:07:25.373Z,15.60
2024-02-15T03:08:29.334Z,16.08
2024-02-15T03:09:32.598Z,15.20
2024-02-15T03:10:36.423Z,18.20
2024-02-15T03:11:39.700Z,15.35
2024-02-15T03:12:49.397Z,15.07
2024-02-15T03:13:53.352Z,16.25
2024-02-15T03:14:56.757Z,16.15
2024-02-15T03:16:00.377Z,14.95
2024-02-15T03:17:04.812Z,15.50
2024-02-15T03:18:11.538Z,15.55
2024-02-15T03:19:15.165Z,16.02
2024-02-15T03:20:23.136Z,17.33
2024-02-15T03:21:29.210Z,18.60
2024-02-15T03:22:32.492Z,15.38
2024-02-15T03:23:35.983Z,18.10
2024-02-15T03:24:39.319Z,14.27
2024-02-15T03:25:42.869Z,17.65
2024-02-15T03:26:46.993Z,17.48
2024-02-15T03:27:50.484Z,18.38
2024-02-15T03:28:55.169Z,15.95
2024-02-15T03:30:00.222Z,15.65
2024-02-15T03:31:03.825Z,17.42
2024-02-15T03:32:08.020Z,16.20
2024-02-15T03:33:11.641Z,16.77
2024-02-15T03:34:17.262Z,17.52
2024-02-15T03:35:26.052Z,17.85
2024-02-15T03:36:30.927Z,18.80
2024-02-15T03:37:38.464Z,16.98
2024-02-15T03:38:43.092Z,19.08
2024-02-15T03:39:46.492Z,19.92
2024-02-15T03:40:50.766Z,16.65
2024-02-15T03:41:55.199Z,18.15
2024-02-15T03:42:59.030Z,17.33
2024-02-15T03:44:02.360Z,18.65
2024-02-15T03:45:10.071Z,17.83
2024-02-15T03:46:14.643Z,17.38
2024-02-15T03:47:18.136Z,17.98
2024-02-15T03:48:21.915Z,19.00
2024-02-15T03:49:32.205Z,16.88
2024-02-15T03:50:36.884Z,18.80
2024-02-15T03:51:40.746Z,17.17
2024-02-15T03:52:45.294Z,17.48
2024-02-15T03:53:53.673Z,18.02
2024-02-15T03:55:01.169Z,18.25
2024-02-15T03:56:06.668Z,20.58
2024-02-15T03:57:10.186Z,21.00
2024-02-15T03:58:16.275Z,20.55
2024-02-15T03:59:23.061Z,18.00
2024-02-15T04:00:27.288Z,20.65
2024-02-15T04:01:33.976Z,21.27
2024-02-15T04:02:38.610Z,20.17
2024-02-15T04:03:43.297Z,18.95
2024-02-15T04:04:49.726Z,19.65
2024-02-15T04:05:54.425Z,20.92
2024-02-15T04:06:58.099Z,19.27
2024-02-15T04:08:03.934Z,19.60
2024-02-15T04:09:09.005Z,19.45
2024-02-15T04:10:12.642Z,21.83
2024-02-15T04:11:31.451Z,19.33
2024-02-15T04:12:35.216Z,21.08
2024-02-15T04:13:39.077Z,21.13
2024-02-15T04:14:43.141Z,21.80
2024-02-15T04:15:48.504Z,21.85
2024-02-15T04:16:51.950Z,26.13
2024-02-15T04:17:57.774Z,20.77
2024-02-15T04:19:01.274Z,21.52
2024-02-15T04:20:07.694Z,19.55
2024-02-15T04:21:11.404Z,20.65
2024-02-15T04:22:17.775Z,20.73
2024-02-15T04:23:22.808Z,20.30
2024-02-15T04:24:27.135Z,21.35
2024-02-15T04:25:32.839Z,23.40
2024-02-15T04:26:38.868Z,20.90
2024-02-15T04:27:42.051Z,20.77
2024-02-15T04:28:45.347Z,20.52
2024-02-15T04:29:48.640Z,21.65
2024-02-15T04:30:52.228Z,21.48
2024-02-15T04:31:56.722Z,23.40
2024-02-15T04:33:00.491Z,21.35
2024-02-15T04:34:05.118Z,20.83
2024-02-15T04:35:10.902Z,22.90
2024-02-15T04:36:17.100Z,22.50
2024-02-15T04:37:22.032Z,21.63
2024-02-15T04:38:26.935Z,21.75
2024-02-15T04:39:32.951Z,22.85
2024-02-15T04:40:36.817Z,19.75
2024-02-15T04:41:40.593Z,20.25
2024-02-15T04:42:46.792Z,22.63
2024-02-15T04:43:50.888Z,22.30
2024-02-15T04:44:55.508Z,22.45
2024-02-15T04:45:59.893Z,20.90
2024-02-15T04:47:06.823Z,21.05
2024-02-15T04:48:10.436Z,23.02
2024-02-15T04:49:14.633Z,20.65
2024-02-15T04:50:20.025Z,20.88
2024-02-15T04:51:23.560Z,20.92
2024-02-15T04:52:26.984Z,20.55
2024-02-15T04:53:33.985Z,25.60
2024-02-15T04:54:37.310Z,22.55
2024-02-15T04:55:40.738Z,23.63
2024-02-15T04:56:44.556Z,21.73
2024-02-15T04:57:50.657Z,21.23
2024-02-15T04:58:54.043Z,23.35
2024-02-15T04:59:57.714Z,24.02
2024-02-15T05:01:01.246Z,20.42
2024-02-15T05:02:04.841Z,22.73
2024-02-15T05:03:09.460Z,21.25
2024-02-15T05:04:15.578Z,21.60
2024-02-15T05:05:20.422Z,20.33
2024-02-15T05:06:23.971Z,21.17
2024-02-15T05:07:28.109Z,22.15
2024-02-15T05:08:33.433Z,20.45
2024-02-15T05:09:36.743Z,22.38
2024-02-15T05:10:40.313Z,22.42
2024-02-15T05:11:47.601Z,21.60
2024-02-15T05:12:51.097Z,21.30
2024-02-15T05:13:54.393Z,21.95
2024-02-15T05:14:57.915Z,21.08
2024-02-15T05:16:01.300Z,21.23
2024-02-15T05:17:04.608Z,21.45
2024-02-15T05:18:10.041Z,20.42
2024-02-15T05:19:13.722Z,22.70
2024-02-15T05:20:17.552Z,22.00
2024-02-15T05:21:21.322Z,23.42
2024-02-15T05:22:24.717Z,21.20
2024-02-15T05:23:28.195Z,22.27
2024-02-15T05:24:33.041Z,24.38
2024-02-15T05:25:36.963Z,22.20
2024-02-15T05:26:40.348Z,21.75
2024-02-15T05:27:45.742Z,21.70
2024-02-15T05:28:49.064Z,22.52
2024-02-15T05:29:54.272Z,21.23
2024-02-15T05:31:18.757Z,25.40
2024-02-15T05:32:23.205Z,23.30
2024-02-15T05:33:27.368Z,24.15
2024-02-15T05:34:31.402Z,22.48
2024-02-15T05:35:37.137Z,23.75
2024-02-15T05:36:40.769Z,22.83
2024-02-15T05:37:45.006Z,23.60
2024-02-15T05:38:49.979Z,22.55
2024-02-15T05:39:55.475Z,23.52
2024-02-15T05:40:58.734Z,24.40
2024-02-15T05:42:02.406Z,25.77
2024-02-15T05:43:07.736Z,23.38
2024-02-15T05:44:11.145Z,24.60
2024-02-15T05:45:38.972Z,24.88
2024-02-15T05:46:42.392Z,26.55
2024-02-15T05:47:45.820Z,24.65
2024-02-15T05:48:50.489Z,24.52
2024-02-15T05:49:55.320Z,22.30
2024-02-15T05:50:59.958Z,25.27
2024-02-15T05:52:03.334Z,22.58
2024-02-15T05:53:07.961Z,23.42
2024-02-15T05:54:11.248Z,23.75
2024-02-15T05:55:20.440Z,23.95
2024-02-15T05:56:23.916Z,24.08
2024-02-15T05:57:28.443Z,23.73
2024-02-15T05:58:32.849Z,25.00
2024-02-15T05:59:36.427Z,23.65
2024-02-15T06:00:42.621Z,22.05
2024-02-15T06:01:46.817Z,24.83
2024-02-15T06:02:51.815Z,24.65
2024-02-15T06:03:57.239Z,24.52
2024-02-15T06:05:05.090Z,23.65
2024-02-15T06:06:08.546Z,23.10
2024-02-15T06:07:12.131Z,23.27
2024-02-15T06:08:15.529Z,22.40
2024-02-15T06:09:19.138Z,23.90
2024-02-15T06:10:22.546Z,24.77
2024-02-15T06:11:25.852Z,23.60
2024-02-15T06:12:29.294Z,23.95
2024-02-15T06:13:33.213Z,21.90
2024-02-15T06:14:37.558Z,26.70
2024-02-15T06:15:41.064Z,20.92
2024-02-15T06:16:47.244Z,23.83
2024-02-15T06:17:50.859Z,22.70
2024-02-15T06:18:54.405Z,22.90
2024-02-15T06:19:58.869Z,24.33
2024-02-15T06:21:03.488Z,23.75
2024-02-15T06:22:06.928Z,27.33
2024-02-15T06:23:10.348Z,23.55
2024-02-15T06:24:13.900Z,22.45
2024-02-15T06:25:22.881Z,23.77
2024-02-15T06:26:26.996Z,25.23
2024-02-15T06:27:30.332Z,25.77
2024-02-15T06:28:52.474Z,24.27
2024-02-15T06:30:14.315Z,23.98
2024-02-15T06:31:36.266Z,22.80
2024-02-15T06:32:58.136Z,25.55
2024-02-15T06:34:20.339Z,21.85
2024-02-15T06:35:42.285Z,23.55
2024-02-15T06:37:08.339Z,23.77
2024-02-15T06:38:30.416Z,22.05
2024-02-15T06:39:42.968Z,23.85
2024-02-15T06:41:50.331Z,23.08
2024-02-15T06:42:53.792Z,23.20
2024-02-15T06:43:57.095Z,23.23
2024-02-15T06:45:00.436Z,22.85
2024-02-15T06:46:04.298Z,23.25
2024-02-15T06:47:08.488Z,20.90
2024-02-15T06:48:12.048Z,24.20
2024-02-15T06:49:15.448Z,25.88
2024-02-15T06:50:18.823Z,22.63
2024-02-15T06:51:22.305Z,22.60
2024-02-15T06:52:25.688Z,24.15
2024-02-15T06:53:29.030Z,20.80
2024-02-15T06:54:32.363Z,22.85
2024-02-15T06:55:37.999Z,22.35
2024-02-15T06:56:41.357Z,23.75
2024-02-15T06:57:44.897Z,23.02
2024-02-15T06:58:49.850Z,24.20
2024-02-15T06:59:53.295Z,24.58
2024-02-15T07:00:56.721Z,25.10
2024-02-15T07:02:06.630Z,22.98
2024-02-15T07:03:10.566Z,21.92
2024-02-15T07:04:14.044Z,22.05
2024-02-15T07:05:18.678Z,22.75
2024-02-15T07:06:23.241Z,22.42
2024-02-15T07:07:27.078Z,21.60
2024-02-15T07:08:31.136Z,22.88
2024-02-15T07:09:34.458Z,22.23
2024-02-15T07:10:41.346Z,23.05
2024-02-15T07:11:47.384Z,21.95
2024-02-15T07:12:52.685Z,22.50
2024-02-15T07:13:56.371Z,21.90
2024-02-15T07:14:59.912Z,22.67
2024-02-15T07:16:03.331Z,19.52
2024-02-15T07:17:06.646Z,22.67
2024-02-15T07:18:12.243Z,21.90
2024-02-15T07:19:17.116Z,20.73
2024-02-15T07:20:20.715Z,22.05
2024-02-15T07:21:30.640Z,21.33
2024-02-15T07:22:33.992Z,22.10
2024-02-15T07:23:38.820Z,23.02
2024-02-15T07:24:42.543Z,23.00
2024-02-15T07:25:50.240Z,21.27
2024-02-15T07:26:56.971Z,22.17
2024-02-15T07:28:00.453Z,22.67
2024-02-15T07:29:07.420Z,20.05
2024-02-15T07:30:11.446Z,20.17
2024-02-15T07:31:16.176Z,18.92
2024-02-15T07:32:19.596Z,20.58
2024-02-15T07:33:25.445Z,22.17
2024-02-15T07:34:29.114Z,19.58
2024-02-15T07:35:34.929Z,20.67
2024-02-15T07:36:40.522Z,19.85
2024-02-15T07:37:53.219Z,19.77
2024-02-15T07:39:03.069Z,20.48
2024-02-15T07:40:09.652Z,20.92
2024-02-15T07:41:14.398Z,21.90
2024-02-15T07:42:18.095Z,19.10
2024-02-15T07:43:21.524Z,20.40
2024-02-15T07:44:24.899Z,19.70
2024-02-15T07:45:29.463Z,18.58
2024-02-15T07:46:35.468Z,20.33
2024-02-15T07:47:40.276Z,20.23
2024-02-15T07:48:49.579Z,19.30
2024-02-15T07:49:53.033Z,18.48
2024-02-15T07:50:56.432Z,19.98
2024-02-15T07:52:00.714Z,18.92
2024-02-15T07:53:04.296Z,20.38
2024-02-15T07:54:07.814Z,17.77
2024-02-15T07:55:11.113Z,16.40
2024-02-15T07:56:16.685Z,19.20
2024-02-15T07:57:20.067Z,18.77
2024-02-15T07:58:23.870Z,17.92
2024-02-15T07:59:27.204Z,16.17
2024-02-15T08:00:31.481Z,19.98
2024-02-15T08:01:35.104Z,17.65
2024-02-15T08:02:44.205Z,16.45
2024-02-15T08:03:47.933Z,15.73
2024-02-15T08:04:51.453Z,19.25
2024-02-15T08:05:55.010Z,20.17
2024-02-15T08:06:58.405Z,17.77
2024-02-15T08:08:01.837Z,16.98
2024-02-15T08:09:08.650Z,16.60
2024-02-15T08:10:16.352Z,17.00
2024-02-15T08:11:20.393Z,17.33
2024-02-15T08:12:23.794Z,16.75
2024-02-15T08:13:30.822Z,17.45
2024-02-15T08:14:34.239Z,15.13
2024-02-15T08:15:37.822Z,17.30
2024-02-15T08:16:42.068Z,18.13
2024-02-15T08:17:50.010Z,15.38
2024-02-15T08:18:56.587Z,15.27
2024-02-15T08:20:00.508Z,16.85
2024-02-15T08:21:04.224Z,15.50
2024-02-15T08:22:07.826Z,16.17
2024-02-15T08:23:12.244Z,15.63
2024-02-15T08:24:15.596Z,16.70
2024-02-15T08:25:19.956Z,14.57
2024-02-15T08:26:24.022Z,15.02
2024-02-15T08:27:27.574Z,16.85
2024-02-15T08:28:30.957Z,14.55
2024-02-15T08:29:35.319Z,15.10
2024-02-15T08:30:38.869Z,16.58
2024-02-15T08:31:43.009Z,15.68
2024-02-15T08:32:47.187Z,15.45
2024-02-15T08:33:50.728Z,14.18
2024-02-15T08:34:54.214Z,14.82
2024-02-15T08:35:57.872Z,13.52
2024-02-15T08:37:01.360Z,14.23
2024-02-15T08:38:06.912Z,13.52
2024-02-15T08:39:13.666Z,14.60
2024-02-15T08:40:20.066Z,14.90
2024-02-15T08:41:28.162Z,14.50
2024-02-15T08:42:31.676Z,14.05
2024-02-15T08:43:35.513Z,15.50
2024-02-15T08:44:38.901Z,14.20
2024-02-15T08:45:43.110Z,15.20
2024-02-15T08:46:47.740Z,15.07
2024-02-15T08:47:54.682Z,12.98
2024-02-15T08:48:58.347Z,13.75
2024-02-15T08:50:01.902Z,12.55
2024-02-15T08:51:07.593Z,13.45
2024-02-15T08:52:11.127Z,13.55
2024-02-15T08:53:16.670Z,12.68
2024-02-15T08:54:21.342Z,11.43
2024-02-15T08:55:28.727Z,14.07
2024-02-15T08:57:35.740Z,12.77
2024-02-15T08:58:41.202Z,12.13
2024-02-15T08:59:44.598Z,13.40
2024-02-15T09:00:47.943Z,12.80
2024-02-15T09:01:52.933Z,12.02
2024-02-15T09:02:57.761Z,12.57
2024-02-15T09:04:01.227Z,12.00
2024-02-15T09:05:04.976Z,12.15
2024-02-15T09:06:09.278Z,12.50
2024-02-15T09:07:12.888Z,11.20
2024-02-15T09:08:22.305Z,12.23
2024-02-15T09:09:27.246Z,11.98
2024-02-15T09:10:31.881Z,11.82
2024-02-15T09:11:36.280Z,12.23
2024-02-15T09:12:41.603Z,12.82
2024-02-15T09:13:45.068Z,11.07
2024-02-15T09:14:49.255Z,11.70
2024-02-15T09:15:52.624Z,13.27
2024-02-15T09:16:55.949Z,12.88
2024-02-15T09:17:59.536Z,11.88
2024-02-15T09:19:03.652Z,11.55
2024-02-15T09:20:16.831Z,12.98
2024-02-15T09:21:20.448Z,12.23
2024-02-15T09:22:23.794Z,11.38
2024-02-15T09:23:27.215Z,10.88
2024-02-15T09:24:30.576Z,10.93
2024-02-15T09:25:34.067Z,10.45
2024-02-15T09:26:37.725Z,12.35
2024-02-15T09:27:43.868Z,10.23
2024-02-15T09:28:47.842Z,10.48
2024-02-15T09:29:51.299Z,12.25
2024-02-15T09:30:54.604Z,11.30
2024-02-15T09:31:58.857Z,11.10
2024-02-15T09:33:02.360Z,11.02
2024-02-15T09:34:08.586Z,10.45
2024-02-15T09:35:13.790Z,11.30
2024-02-15T09:36:18.574Z,10.25
2024-02-15T09:37:22.068Z,10.95
2024-02-15T09:38:26.748Z,11.07
2024-02-15T09:39:30.276Z,11.00
2024-02-15T09:40:36.085Z,11.00
2024-02-15T09:41:40.190Z,9.88
2024-02-15T09:42:45.867Z,11.95
2024-02-15T09:43:49.733Z,10.93
2024-02-15T09:44:53.318Z,10.55
2024-02-15T09:45:56.736Z,10.68
2024-02-15T09:47:07.763Z,9.55
2024-02-15T09:48:15.074Z,10.27
2024-02-15T09:49:19.425Z,9.68
2024-02-15T09:50:25.944Z,11.13
2024-02-15T09:51:32.726Z,10.68
2024-02-15T09:52:39.486Z,10.02
2024-02-15T09:53:43.455Z,8.80
2024-02-15T09:54:47.455Z,9.75
2024-02-15T09:55:50.965Z,10.10
2024-02-15T09:56:55.162Z,11.18
2024-02-15T09:58:00.054Z,9.35
2024-02-15T09:59:03.688Z,9.40
2024-02-15T10:00:15.047Z,10.15
2024-02-15T10:01:23.510Z,8.43
2024-02-15T10:02:28.476Z,7.95
2024-02-15T10:03:32.860Z,9.70
2024-02-15T10:04:36.390Z,8.50
2024-02-15T10:05:41.987Z,10.20
2024-02-15T10:06:45.472Z,9.32
2024-02-15T10:07:49.000Z,8.77
2024-02-15T10:08:52.377Z,8.98
2024-02-15T10:09:59.625Z,10.30
2024-02-15T10:11:11.246Z,9.57
2024-02-15T10:12:14.836Z,10.15
2024-02-15T10:13:25.527Z,8.80
2024-02-15T10:14:30.690Z,10.52
2024-02-15T10:15:38.416Z,9.27
2024-02-15T10:16:42.006Z,9.07
2024-02-15T10:17:56.928Z,8.65
2024-02-15T10:19:11.915Z,10.52
2024-02-15T10:20:16.450Z,9.82
2024-02-15T10:21:28.302Z,9.05
2024-02-15T10:22:32.305Z,7.82
2024-02-15T10:23:36.082Z,9.15
2024-02-15T10:24:41.179Z,9.63
2024-02-15T10:25:45.034Z,8.52
2024-02-15T10:26:50.682Z,8.15
2024-02-15T10:28:04.367Z,8.45
2024-02-15T10:29:12.565Z,7.57
2024-02-15T10:30:21.625Z,8.45
2024-02-15T10:31:25.115Z,8.32
2024-02-15T10:32:37.252Z,8.43
2024-02-15T10:33:41.381Z,7.60
2024-02-15T10:34:47.530Z,8.10
2024-02-15T10:35:51.147Z,8.98
2024-02-15T10:36:59.415Z,7.90
2024-02-15T10:38:11.316Z,8.00
2024-02-15T10:39:23.100Z,7.63
2024-02-15T10:40:27.205Z,7.70
2024-02-15T10:41:31.118Z,7.60
2024-02-15T10:42:37.672Z,7.78
2024-02-15T10:43:45.448Z,8.82
2024-02-15T10:44:52.956Z,7.72
2024-02-15T10:45:57.711Z,7.47
2024-02-15T10:47:02.075Z,7.30
2024-02-15T10:48:11.919Z,8.13
2024-02-15T10:49:16.475Z,8.43
2024-02-15T10:50:20.017Z,7.15
2024-02-15T10:51:25.896Z,6.53
2024-02-15T10:52:33.356Z,7.85
2024-02-15T10:53:43.125Z,8.02
2024-02-15T10:55:00.779Z,8.15
2024-02-15T10:56:07.637Z,7.65
2024-02-15T10:57:14.269Z,7.35
2024-02-15T10:58:21.712Z,7.72
2024-02-15T10:59:30.637Z,8.05
2024-02-15T11:00:41.486Z,7.35
2024-02-15T11:01:49.398Z,7.38
2024-02-15T11:03:09.419Z,7.68
2024-02-15T11:04:17.000Z,6.75
2024-02-15T11:05:25.367Z,6.97
2024-02-15T11:06:31.770Z,6.18
2024-02-15T11:07:35.992Z,6.35
2024-02-15T11:08:40.807Z,8.98
2024-02-15T11:09:44.684Z,6.28
2024-02-15T11:10:49.092Z,7.63
2024-02-15T11:11:54.593Z,5.97
2024-02-15T11:13:00.434Z,6.60
2024-02-15T11:14:26.595Z,6.50
2024-02-15T11:15:43.465Z,6.63
2024-02-15T11:16:47.301Z,6.57
2024-02-15T11:17:52.329Z,7.38
2024-02-15T11:18:57.064Z,6.40
2024-02-15T11:20:01.266Z,5.88
2024-02-15T11:21:04.989Z,7.07
2024-02-15T11:22:18.768Z,5.65
2024-02-15T11:23:36.035Z,6.65
2024-02-15T11:24:51.300Z,6.78
2024-02-15T11:25:56.238Z,5.97
2024-02-15T11:27:05.752Z,6.43
2024-02-15T11:28:31.142Z,6.72
2024-02-15T11:30:04.539Z,7.22
2024-02-15T11:31:09.299Z,6.15
2024-02-15T11:32:36.415Z,6.85
2024-02-15T11:33:43.211Z,7.30
2024-02-15T11:34:49.953Z,6.47
2024-02-15T11:36:13.431Z,5.97
2024-02-15T11:37:48.624Z,7.55
2024-02-15T11:38:52.017Z,6.50
2024-02-15T11:40:00.764Z,7.32
2024-02-15T11:41:09.963Z,6.93
2024-02-15T11:42:31.428Z,6.55
2024-02-15T11:44:02.713Z,6.10
2024-02-15T11:45:09.346Z,6.45
2024-02-15T11:46:16.447Z,6.07
2024-02-15T11:47:28.199Z,6.88
2024-02-15T11:48:32.289Z,6.28
2024-02-15T11:49:37.216Z,5.95
2024-02-15T11:50:41.260Z,6.63
2024-02-15T11:51:45.337Z,7.28
2024-02-15T11:52:52.927Z,6.75
2024-02-15T11:54:13.105Z,5.95
2024-02-15T11:55:21.080Z,6.00
2024-02-15T11:56:28.341Z,5.68
2024-02-15T11:57:39.613Z,6.95
2024-02-15T11:58:53.883Z,7.03
2024-02-15T12:00:21.782Z,6.68
2024-02-15T12:01:44.895Z,5.45
2024-02-15T12:03:23.611Z,5.82
2024-02-15T12:04:45.450Z,7.75
2024-02-15T12:06:10.039Z,6.60
2024-02-15T12:07:34.731Z,5.55
2024-02-15T12:09:03.473Z,5.53
2024-02-15T12:10:28.670Z,8.10
2024-02-15T12:13:13.685Z,6.15
2024-02-15T12:14:36.426Z,5.57
2024-02-15T12:15:58.573Z,5.50
2024-02-15T12:17:24.805Z,6.15
2024-02-15T12:18:48.032Z,6.43
2024-02-15T12:19:55.321Z,5.40
2024-02-15T12:20:58.899Z,5.75
2024-02-15T12:22:04.601Z,5.57
2024-02-15T12:23:09.575Z,6.00
2024-02-15T12:24:13.506Z,6.25
2024-02-15T12:25:18.265Z,6.25
2024-02-15T12:26:25.290Z,5.97
2024-02-15T12:27:29.236Z,5.55
2024-02-15T12:28:33.153Z,6.82
2024-02-15T12:29:36.949Z,5.90
2024-02-15T12:30:42.078Z,6.38
2024-02-15T12:31:45.996Z,5.65
2024-02-15T12:32:53.098Z,7.03
2024-02-15T12:34:09.401Z,5.88
2024-02-15T12:35:18.698Z,5.10
2024-02-15T12:36:23.097Z,5.35
2024-02-15T12:37:26.783Z,5.53
2024-02-15T12:38:30.061Z,6.53
2024-02-15T12:39:33.552Z,6.10
2024-02-15T12:40:39.226Z,6.47
2024-02-15T12:41:51.592Z,7.30
2024-02-15T12:42:55.318Z,5.97
2024-02-15T12:43:59.385Z,5.97
2024-02-15T12:45:05.478Z,5.82
2024-02-15T12:46:10.929Z,5.15
2024-02-15T12:47:26.735Z,5.65
2024-02-15T12:48:32.299Z,7.13
2024-02-15T12:49:36.424Z,5.05
2024-02-15T12:50:40.079Z,5.28
2024-02-15T12:51:55.367Z,4.93
2024-02-15T12:53:05.321Z,6.20
2024-02-15T12:54:12.722Z,5.00
2024-02-15T12:55:18.016Z,5.80
2024-02-15T12:56:23.103Z,4.60
2024-02-15T12:57:27.377Z,6.10
2024-02-15T12:58:32.217Z,7.10
2024-02-15T12:59:35.530Z,5.93
2024-02-15T13:00:41.646Z,6.15
2024-02-15T13:01:45.305Z,5.18
2024-02-15T13:02:53.168Z,5.15
2024-02-15T13:03:56.698Z,6.07
2024-02-15T13:05:00.072Z,5.72
2024-02-15T13:06:04.285Z,4.65
2024-02-15T13:07:08.881Z,5.45
2024-02-15T13:08:19.862Z,5.75
2024-02-15T13:09:24.538Z,5.25
2024-02-15T13:10:30.919Z,4.90
2024-02-15T13:11:35.573Z,5.43
2024-02-15T13:12:39.447Z,4.85
2024-02-15T13:13:45.445Z,5.40
2024-02-15T13:14:51.611Z,4.50
2024-02-15T13:15:57.788Z,6.28
2024-02-15T13:17:01.974Z,4.93
2024-02-15T13:18:11.887Z,5.60
2024-02-15T13:19:15.918Z,5.65
2024-02-15T13:20:21.803Z,5.00
2024-02-15T13:21:29.306Z,4.97
2024-02-15T13:22:34.092Z,4.70
2024-02-15T13:23:37.571Z,4.80
2024-02-15T13:24:41.054Z,6.18
2024-02-15T13:25:45.291Z,5.80
2024-02-15T13:26:50.168Z,5.72
2024-02-15T13:27:53.634Z,5.40
2024-02-15T13:28:57.058Z,5.05
2024-02-15T13:30:00.684Z,5.22
2024-02-15T13:31:04.351Z,6.15
2024-02-15T13:32:07.983Z,5.18
2024-02-15T13:33:12.044Z,4.75
2024-02-15T13:34:15.816Z,4.70
2024-02-15T13:35:21.673Z,5.85
2024-02-15T13:36:25.729Z,6.10
2024-02-15T13:37:29.543Z,4.38
2024-02-15T13:38:35.105Z,5.47
2024-02-15T13:39:39.970Z,4.68
2024-02-15T13:40:46.617Z,5.32
2024-02-15T13:41:50.117Z,4.30
2024-02-15T13:42:57.004Z,4.47
2024-02-15T13:44:04.684Z,5.10
2024-02-15T13:45:12.526Z,6.72
2024-02-15T13:46:17.339Z,5.13
2024-02-15T13:47:20.929Z,5.35
2024-02-15T13:48:26.086Z,5.13
2024-02-15T13:49:33.275Z,4.82
2024-02-15T13:51:40.809Z,4.70
2024-02-15T13:52:47.729Z,5.10
2024-02-15T13:53:51.219Z,4.82
2024-02-15T13:54:55.207Z,4.78
2024-02-15T13:55:59.700Z,4.95
2024-02-15T13:57:03.986Z,5.95
2024-02-15T13:58:11.941Z,5.90
2024-02-15T13:59:15.302Z,6.35
2024-02-15T14:00:23.102Z,4.47
2024-02-15T14:01:28.545Z,5.53
2024-02-15T14:02:31.918Z,4.75
2024-02-15T14:03:35.531Z,4.53
2024-02-15T14:04:39.978Z,4.25
2024-02-15T14:05:44.103Z,4.32
2024-02-15T14:06:47.632Z,4.70
2024-02-15T14:07:51.999Z,4.93
2024-02-15T14:08:55.463Z,5.18
2024-02-15T14:10:02.432Z,5.03
2024-02-15T14:11:07.100Z,5.22
2024-02-15T14:12:10.610Z,4.50
2024-02-15T14:13:15.945Z,4.82
2024-02-15T14:14:19.288Z,4.35
2024-02-15T14:15:26.166Z,4.95
2024-02-15T14:16:31.809Z,5.22
2024-02-15T14:17:36.631Z,4.93
2024-02-15T14:18:40.770Z,5.45
2024-02-15T14:19:45.049Z,6.43
2024-02-15T14:20:49.278Z,4.55
2024-02-15T14:21:56.060Z,5.95